San Juan Enterprise — WDD9563 — position and weather

sailwx.info

Track history (hours):
 
Tides and Currents Weather Stations Pressure Air Temp Water Temp Dewpoint Dewpoint Depression Visibility Wind Speed Wind Dir Waves Ship Positions

San Juan Enterprise

Owner: SAN JUAN MARINE FREIGHT CO LLC, ANACORTES, WA. More information available from US FCC via Universal Licensing System and Coast Guard Vessel Documentation Center.

Last reported at 2016-Feb-11 18:33 UTC. Time now 2016-Feb-11 19:14 UTC.
Position N 48°32' W 122°48'.

Length 30 m.

MMSI: 367313160.

Date/timePositionNaut miles runAvg speedWind from/ knotsBaromVisibWave heightAir tempDewpointWater temp
2016-Feb-11 18:33N 48°32' W 122°48'8 8.1
2016-Feb-11 17:33N 48°31' W 122°36'0 0.0
2016-Feb-11 16:30N 48°31' W 122°36'0 0.0
2016-Feb-11 15:33N 48°31' W 122°36'0 0.0
2016-Feb-11 14:30N 48°31' W 122°36'0 0.0
2016-Feb-11 13:30N 48°31' W 122°36'0 0.0
2016-Feb-11 12:30N 48°31' W 122°36'0 0.0
2016-Feb-11 11:24N 48°31' W 122°36'0 0.0
2016-Feb-11 10:30N 48°31' W 122°36'0 0.0
2016-Feb-11 09:24N 48°31' W 122°36'0 0.0
2016-Feb-11 08:30N 48°31' W 122°36'0 0.0
2016-Feb-11 07:30N 48°31' W 122°36'0 0.0
2016-Feb-11 06:33N 48°31' W 122°36'0 0.0
2016-Feb-11 05:24N 48°31' W 122°36'0 0.0
2016-Feb-11 04:30N 48°31' W 122°36'0 0.0
2016-Feb-11 03:30N 48°31' W 122°36'3 3.5
2016-Feb-11 02:33N 48°31' W 122°41'2 0.5
2016-Feb-10 22:33N 48°28' W 122°41'4 4.0
2016-Feb-10 21:33N 48°31' W 122°37'0 0.0
2016-Feb-10 20:33N 48°31' W 122°37'0 0.4
2016-Feb-10 19:33N 48°31' W 122°36'0 0.0
2016-Feb-10 18:33N 48°31' W 122°36'4 3.6
2016-Feb-10 17:29N 48°33' W 122°41'4 3.9
2016-Feb-10 16:30N 48°31' W 122°36'0 0.0
2016-Feb-10 15:30N 48°31' W 122°36'0 0.0
2016-Feb-10 14:30N 48°31' W 122°36'0 0.0
2016-Feb-10 13:33N 48°31' W 122°36'0 0.0
2016-Feb-10 12:30N 48°31' W 122°36'0 0.0
2016-Feb-10 11:30N 48°31' W 122°36'0 0.0
2016-Feb-10 10:33N 48°31' W 122°36'0 0.0
2016-Feb-10 09:30N 48°31' W 122°36'0 0.0
2016-Feb-10 08:33N 48°31' W 122°36'0 0.0
2016-Feb-10 07:30N 48°31' W 122°36'0 0.0
2016-Feb-10 06:30N 48°31' W 122°36'0 0.0
2016-Feb-10 05:33N 48°31' W 122°36'0 0.0
2016-Feb-10 04:33N 48°31' W 122°36'0 0.0
2016-Feb-10 03:33N 48°31' W 122°36'0 0.0
2016-Feb-10 02:33N 48°31' W 122°36'0 0.0
2016-Feb-10 01:18N 48°31' W 122°36'0 0.0
2016-Feb-10 00:30N 48°31' W 122°36'0 0.0
2016-Feb-09 23:33N 48°31' W 122°36'0 0.0
2016-Feb-09 22:30N 48°31' W 122°36'0 0.0
2016-Feb-09 21:30N 48°31' W 122°36'0 0.0
2016-Feb-09 20:30N 48°31' W 122°36'0 0.0
2016-Feb-09 19:27N 48°31' W 122°36'0 0.0
2016-Feb-09 18:33N 48°31' W 122°36'0 0.0
2016-Feb-09 17:33N 48°31' W 122°36'0 0.0
2016-Feb-09 16:33N 48°31' W 122°36'0 0.0
2016-Feb-09 15:33N 48°31' W 122°36'0 0.0
2016-Feb-09 14:33N 48°31' W 122°36'0 0.0
2016-Feb-09 13:33N 48°31' W 122°36'0 0.0
2016-Feb-09 12:33N 48°31' W 122°36'0 0.0
2016-Feb-09 11:33N 48°31' W 122°36'0 0.0
2016-Feb-09 10:33N 48°31' W 122°36'0 0.0
2016-Feb-09 09:33N 48°31' W 122°36'0 0.0
2016-Feb-09 08:33N 48°31' W 122°36'0 0.0
2016-Feb-09 07:33N 48°31' W 122°36'0 0.0
2016-Feb-09 06:30N 48°31' W 122°36'0 0.0
2016-Feb-09 05:30N 48°31' W 122°36'0 0.0
2016-Feb-09 04:33N 48°31' W 122°36'0 0.0
2016-Feb-09 03:30N 48°31' W 122°36'0 0.0
2016-Feb-09 02:33N 48°31' W 122°36'0 0.0
2016-Feb-09 01:30N 48°31' W 122°36'0 0.0
2016-Feb-09 00:30N 48°31' W 122°36'0 0.0
2016-Feb-08 23:27N 48°31' W 122°36'0 0.0
2016-Feb-08 22:30N 48°31' W 122°36'0 0.0
2016-Feb-08 21:30N 48°31' W 122°36'0 0.0
2016-Feb-08 20:33N 48°31' W 122°36'0 0.0
2016-Feb-08 19:30N 48°31' W 122°36'0 0.0
2016-Feb-08 18:33N 48°31' W 122°36'0 0.0
2016-Feb-08 17:33N 48°31' W 122°36'0 0.0
2016-Feb-08 16:30N 48°31' W 122°36'0 0.0
2016-Feb-08 15:33N 48°31' W 122°36'0 0.0
2016-Feb-08 14:30N 48°31' W 122°36'0 0.0
2016-Feb-08 13:30N 48°31' W 122°36'0 0.0
2016-Feb-08 11:27N 48°31' W 122°36'0 0.0
2016-Feb-08 10:33N 48°31' W 122°36'0 0.0
2016-Feb-08 09:24N 48°31' W 122°36'0 0.0
2016-Feb-08 08:24N 48°31' W 122°36'0 0.0
2016-Feb-08 07:30N 48°31' W 122°36'0 0.0
2016-Feb-08 06:33N 48°31' W 122°36'0 0.0
2016-Feb-08 05:30N 48°31' W 122°36'0 0.0
2016-Feb-08 04:33N 48°31' W 122°36'0 0.0
2016-Feb-08 03:33N 48°31' W 122°36'0 0.0
2016-Feb-08 02:33N 48°31' W 122°36'0 0.0
2016-Feb-08 01:33N 48°31' W 122°36'0 0.0
2016-Feb-08 00:30N 48°31' W 122°36'0 0.0
2016-Feb-07 23:30N 48°31' W 122°36'0 0.0
2016-Feb-07 22:30N 48°31' W 122°36'0 0.0
2016-Feb-07 21:33N 48°31' W 122°36'0 0.0
2016-Feb-07 20:30N 48°31' W 122°36'0 0.0
2016-Feb-07 19:30N 48°31' W 122°36'0 0.0
2016-Feb-07 18:33N 48°31' W 122°36'0 0.0
2016-Feb-07 17:30N 48°31' W 122°36'0 0.0
2016-Feb-07 16:33N 48°31' W 122°36'0 0.0
2016-Feb-07 15:27N 48°31' W 122°36'0 0.0
2016-Feb-07 13:33N 48°31' W 122°36'0 0.0
2016-Feb-07 12:33N 48°31' W 122°36'0 0.0
2016-Feb-07 11:33N 48°31' W 122°36'0 0.0
2016-Feb-07 10:33N 48°31' W 122°36'0 0.0
2016-Feb-07 09:33N 48°31' W 122°36'0 0.0
2016-Feb-07 08:33N 48°31' W 122°36'0 0.0
2016-Feb-07 07:24N 48°31' W 122°36'0 0.0
2016-Feb-07 06:30N 48°31' W 122°36'0 0.0
2016-Feb-07 05:30N 48°31' W 122°36'0 0.0
2016-Feb-07 04:30N 48°31' W 122°36'0 0.0
2016-Feb-07 03:30N 48°31' W 122°36'0 0.0
2016-Feb-07 02:18N 48°31' W 122°36'0 0.0
2016-Feb-07 01:30N 48°31' W 122°36'0 0.0
2016-Feb-07 00:24N 48°31' W 122°36'0 0.0
2016-Feb-06 23:33N 48°31' W 122°36'0 0.0
2016-Feb-06 22:33N 48°31' W 122°36'8 8.3
2016-Feb-06 21:33N 48°32' W 122°49'7 7.3
2016-Feb-06 20:34N 48°32' W 122°60'0 0.0
2016-Feb-06 19:33N 48°32' W 123°00'5 4.6
2016-Feb-06 18:33N 48°34' W 122°54'8 8.0
2016-Feb-06 17:33N 48°32' W 122°42'4 4.0
2016-Feb-06 16:33N 48°31' W 122°36'0 0.0
2016-Feb-06 15:33N 48°31' W 122°36'0 0.0
2016-Feb-06 14:33N 48°31' W 122°36'0 0.0
2016-Feb-06 13:33N 48°31' W 122°36'0 0.0
2016-Feb-06 12:33N 48°31' W 122°36'0 0.0
2016-Feb-06 11:33N 48°31' W 122°36'0 0.0
2016-Feb-06 10:33N 48°31' W 122°36'0 0.0
2016-Feb-06 09:33N 48°31' W 122°36'0 0.0
2016-Feb-06 08:34N 48°31' W 122°36'0 0.0
2016-Feb-06 07:33N 48°31' W 122°36'0 0.0
2016-Feb-06 06:33N 48°31' W 122°36'0 0.0
2016-Feb-06 05:34N 48°31' W 122°36'0 0.0
2016-Feb-06 04:33N 48°31' W 122°36'0 0.0
2016-Feb-06 03:33N 48°31' W 122°36'0 0.0
2016-Feb-06 02:33N 48°31' W 122°36'0 0.0
2016-Feb-06 01:33N 48°31' W 122°36'0 0.0
2016-Feb-06 00:34N 48°31' W 122°36'0 0.0
2016-Feb-05 23:34N 48°31' W 122°36'0 0.0
2016-Feb-05 22:33N 48°31' W 122°36'0 0.0
2016-Feb-05 21:34N 48°31' W 122°36'0 0.0
2016-Feb-05 20:33N 48°31' W 122°36'0 0.0
2016-Feb-05 19:34N 48°31' W 122°36'0 0.0
2016-Feb-05 18:33N 48°31' W 122°36'0 0.0
2016-Feb-05 17:33N 48°31' W 122°36'0 0.0
2016-Feb-05 16:33N 48°31' W 122°36'0 0.0
2016-Feb-05 15:34N 48°31' W 122°36'0 0.0
2016-Feb-05 14:33N 48°31' W 122°36'0 0.0
2016-Feb-05 13:33N 48°31' W 122°36'0 0.0
2016-Feb-05 12:33N 48°31' W 122°36'0 0.0
2016-Feb-05 11:34N 48°31' W 122°36'0 0.0
2016-Feb-05 10:33N 48°31' W 122°36'0 0.0
2016-Feb-05 09:33N 48°31' W 122°36'0 0.0
2016-Feb-05 08:33N 48°31' W 122°36'0 0.0
2016-Feb-05 07:33N 48°31' W 122°36'0 0.0
2016-Feb-05 06:34N 48°31' W 122°36'0 0.0
2016-Feb-05 05:34N 48°31' W 122°36'0 0.0
2016-Feb-05 04:33N 48°31' W 122°36'0 0.0
2016-Feb-05 03:33N 48°31' W 122°36'0 0.0
2016-Feb-05 02:33N 48°31' W 122°36'0 0.0
2016-Feb-05 01:34N 48°31' W 122°36'0 0.0
2016-Feb-05 00:33N 48°31' W 122°36'0 0.0
2016-Feb-04 23:34N 48°31' W 122°36'0 0.0
2016-Feb-04 22:33N 48°31' W 122°36'1 1.2
2016-Feb-04 21:33N 48°31' W 122°38'9 8.7
2016-Feb-04 20:33N 48°33' W 122°51'2 1.8
2016-Feb-04 19:33N 48°33' W 122°53'1 0.9
2016-Feb-04 18:33N 48°34' W 122°53'9 8.7
2016-Feb-04 17:34N 48°31' W 122°40'3 2.6
2016-Feb-04 16:33N 48°31' W 122°36'1 0.6
2016-Feb-04 15:33N 48°31' W 122°36'0 0.0
2016-Feb-04 14:33N 48°31' W 122°36'0 0.0
2016-Feb-04 13:30N 48°31' W 122°36'0 0.0
2016-Feb-04 12:30N 48°31' W 122°36'0 0.0
2016-Feb-04 11:30N 48°31' W 122°36'0 0.0
2016-Feb-04 10:33N 48°31' W 122°36'0 0.0
2016-Feb-04 09:33N 48°31' W 122°36'0 0.0
2016-Feb-04 08:30N 48°31' W 122°36'0 0.0
2016-Feb-04 07:33N 48°31' W 122°36'0 0.0
2016-Feb-04 06:33N 48°31' W 122°36'0 0.0
2016-Feb-04 05:33N 48°31' W 122°36'0 0.0
2016-Feb-04 04:33N 48°31' W 122°36'0 0.0
2016-Feb-04 03:33N 48°31' W 122°36'0 0.0
2016-Feb-04 02:33N 48°31' W 122°36'5 5.4
2016-Feb-04 01:33N 48°36' W 122°41'5 5.1
2016-Feb-04 00:33N 48°35' W 122°49'1 0.8
2016-Feb-03 23:33N 48°36' W 122°49'0 0.5
2016-Feb-03 22:33N 48°36' W 122°49'1 0.6
2016-Feb-03 21:33N 48°36' W 122°49'1 0.6
2016-Feb-03 20:33N 48°36' W 122°49'1 1.1
2016-Feb-03 19:33N 48°35' W 122°49'1 1.1
2016-Feb-03 18:33N 48°36' W 122°49'1 1.2
2016-Feb-03 17:33N 48°35' W 122°49'1 1.0
2016-Feb-03 16:33N 48°36' W 122°48'9 9.3
2016-Feb-03 15:33N 48°31' W 122°36'0 0.0
2016-Feb-03 14:29N 48°31' W 122°36'0 0.0
2016-Feb-03 13:29N 48°31' W 122°36'0 0.0
2016-Feb-03 12:26N 48°31' W 122°36'0 0.0
2016-Feb-03 11:29N 48°31' W 122°36'0 0.0
2016-Feb-03 10:29N 48°31' W 122°36'0 0.0
2016-Feb-03 09:29N 48°31' W 122°36'0 0.0
2016-Feb-03 08:29N 48°31' W 122°36'0 0.0
2016-Feb-03 07:23N 48°31' W 122°36'0 0.0
2016-Feb-03 06:32N 48°31' W 122°36'0 0.0
2016-Feb-03 05:29N 48°31' W 122°36'0 0.0
2016-Feb-03 04:29N 48°31' W 122°36'0 0.0
2016-Feb-03 03:29N 48°31' W 122°36'0 0.0
2016-Feb-03 02:29N 48°31' W 122°36'0 0.0
2016-Feb-03 01:23N 48°31' W 122°36'0 0.0
2016-Feb-03 00:29N 48°31' W 122°36'0 0.0
2016-Feb-02 23:29N 48°31' W 122°36'0 0.0
2016-Feb-02 22:29N 48°31' W 122°36'0 0.0
2016-Feb-02 21:29N 48°31' W 122°36'0 0.0
2016-Feb-02 20:29N 48°31' W 122°36'0 0.0
2016-Feb-02 19:29N 48°31' W 122°36'0 0.0
2016-Feb-02 18:29N 48°31' W 122°36'0 0.0
2016-Feb-02 17:29N 48°31' W 122°36'0 0.0
2016-Feb-02 16:29N 48°31' W 122°36'0 0.0
2016-Feb-02 15:29N 48°31' W 122°36'0 0.0
2016-Feb-02 14:26N 48°31' W 122°36'0 0.0
2016-Feb-02 12:23N 48°31' W 122°36'0 0.0
2016-Feb-02 11:29N 48°31' W 122°36'0 0.0
2016-Feb-02 10:29N 48°31' W 122°36'0 0.0
2016-Feb-02 09:29N 48°31' W 122°36'0 0.0
2016-Feb-02 08:23N 48°31' W 122°36'0 0.0
2016-Feb-02 07:32N 48°31' W 122°36'0 0.0
2016-Feb-02 06:29N 48°31' W 122°36'0 0.0
2016-Feb-02 05:29N 48°31' W 122°36'0 0.0
2016-Feb-02 04:29N 48°31' W 122°36'0 0.0
2016-Feb-02 03:17N 48°31' W 122°36'0 0.0
2016-Feb-02 02:23N 48°31' W 122°36'0 0.0
2016-Feb-02 01:29N 48°31' W 122°36'0 0.0
2016-Feb-02 00:33N 48°31' W 122°36'3 2.6
2016-Feb-01 23:33N 48°31' W 122°40'7 6.6
2016-Feb-01 22:33N 48°25' W 122°36'2 1.2
2016-Feb-01 20:29N 48°24' W 122°39'6 6.8
2016-Feb-01 19:33N 48°31' W 122°40'2 2.2
2016-Feb-01 18:33N 48°31' W 122°37'  
Track history (hours):
 
Tides and Currents Weather Stations Pressure Air Temp Water Temp Dewpoint Dewpoint Depression Visibility Wind Speed Wind Dir Waves Ship Positions

San Juan Enterprise

Owner: SAN JUAN MARINE FREIGHT CO LLC, ANACORTES, WA. More information available from US FCC via Universal Licensing System and Coast Guard Vessel Documentation Center.

Last reported at 2016-Feb-11 18:33 UTC. Time now 2016-Feb-11 19:14 UTC.
Position N 48°32' W 122°48'.

Length 30 m.

MMSI: 367313160.

Date/timePositionNaut miles runAvg speedWind from/ knotsBaromVisibWave heightAir tempDewpointWater temp
2016-Feb-11 18:33N 48°32' W 122°48'8 8.1
2016-Feb-11 17:33N 48°31' W 122°36'0 0.0
2016-Feb-11 16:30N 48°31' W 122°36'0 0.0
2016-Feb-11 15:33N 48°31' W 122°36'0 0.0
2016-Feb-11 14:30N 48°31' W 122°36'0 0.0
2016-Feb-11 13:30N 48°31' W 122°36'0 0.0
2016-Feb-11 12:30N 48°31' W 122°36'0 0.0
2016-Feb-11 11:24N 48°31' W 122°36'0 0.0
2016-Feb-11 10:30N 48°31' W 122°36'0 0.0
2016-Feb-11 09:24N 48°31' W 122°36'0 0.0
2016-Feb-11 08:30N 48°31' W 122°36'0 0.0
2016-Feb-11 07:30N 48°31' W 122°36'0 0.0
2016-Feb-11 06:33N 48°31' W 122°36'0 0.0
2016-Feb-11 05:24N 48°31' W 122°36'0 0.0
2016-Feb-11 04:30N 48°31' W 122°36'0 0.0
2016-Feb-11 03:30N 48°31' W 122°36'3 3.5
2016-Feb-11 02:33N 48°31' W 122°41'2 0.5
2016-Feb-10 22:33N 48°28' W 122°41'4 4.0
2016-Feb-10 21:33N 48°31' W 122°37'0 0.0
2016-Feb-10 20:33N 48°31' W 122°37'0 0.4
2016-Feb-10 19:33N 48°31' W 122°36'0 0.0
2016-Feb-10 18:33N 48°31' W 122°36'4 3.6
2016-Feb-10 17:29N 48°33' W 122°41'4 3.9
2016-Feb-10 16:30N 48°31' W 122°36'0 0.0
2016-Feb-10 15:30N 48°31' W 122°36'0 0.0
2016-Feb-10 14:30N 48°31' W 122°36'0 0.0
2016-Feb-10 13:33N 48°31' W 122°36'0 0.0
2016-Feb-10 12:30N 48°31' W 122°36'0 0.0
2016-Feb-10 11:30N 48°31' W 122°36'0 0.0
2016-Feb-10 10:33N 48°31' W 122°36'0 0.0
2016-Feb-10 09:30N 48°31' W 122°36'0 0.0
2016-Feb-10 08:33N 48°31' W 122°36'0 0.0
2016-Feb-10 07:30N 48°31' W 122°36'0 0.0
2016-Feb-10 06:30N 48°31' W 122°36'0 0.0
2016-Feb-10 05:33N 48°31' W 122°36'0 0.0
2016-Feb-10 04:33N 48°31' W 122°36'0 0.0
2016-Feb-10 03:33N 48°31' W 122°36'0 0.0
2016-Feb-10 02:33N 48°31' W 122°36'0 0.0
2016-Feb-10 01:18N 48°31' W 122°36'0 0.0
2016-Feb-10 00:30N 48°31' W 122°36'0 0.0
2016-Feb-09 23:33N 48°31' W 122°36'0 0.0
2016-Feb-09 22:30N 48°31' W 122°36'0 0.0
2016-Feb-09 21:30N 48°31' W 122°36'0 0.0
2016-Feb-09 20:30N 48°31' W 122°36'0 0.0
2016-Feb-09 19:27N 48°31' W 122°36'0 0.0
2016-Feb-09 18:33N 48°31' W 122°36'0 0.0
2016-Feb-09 17:33N 48°31' W 122°36'0 0.0
2016-Feb-09 16:33N 48°31' W 122°36'0 0.0
2016-Feb-09 15:33N 48°31' W 122°36'0 0.0
2016-Feb-09 14:33N 48°31' W 122°36'0 0.0
2016-Feb-09 13:33N 48°31' W 122°36'0 0.0
2016-Feb-09 12:33N 48°31' W 122°36'0 0.0
2016-Feb-09 11:33N 48°31' W 122°36'0 0.0
2016-Feb-09 10:33N 48°31' W 122°36'0 0.0
2016-Feb-09 09:33N 48°31' W 122°36'0 0.0
2016-Feb-09 08:33N 48°31' W 122°36'0 0.0
2016-Feb-09 07:33N 48°31' W 122°36'0 0.0
2016-Feb-09 06:30N 48°31' W 122°36'0 0.0
2016-Feb-09 05:30N 48°31' W 122°36'0 0.0
2016-Feb-09 04:33N 48°31' W 122°36'0 0.0
2016-Feb-09 03:30N 48°31' W 122°36'0 0.0
2016-Feb-09 02:33N 48°31' W 122°36'0 0.0
2016-Feb-09 01:30N 48°31' W 122°36'0 0.0
2016-Feb-09 00:30N 48°31' W 122°36'0 0.0
2016-Feb-08 23:27N 48°31' W 122°36'0 0.0
2016-Feb-08 22:30N 48°31' W 122°36'0 0.0
2016-Feb-08 21:30N 48°31' W 122°36'0 0.0
2016-Feb-08 20:33N 48°31' W 122°36'0 0.0
2016-Feb-08 19:30N 48°31' W 122°36'0 0.0
2016-Feb-08 18:33N 48°31' W 122°36'0 0.0
2016-Feb-08 17:33N 48°31' W 122°36'0 0.0
2016-Feb-08 16:30N 48°31' W 122°36'0 0.0
2016-Feb-08 15:33N 48°31' W 122°36'0 0.0
2016-Feb-08 14:30N 48°31' W 122°36'0 0.0
2016-Feb-08 13:30N 48°31' W 122°36'0 0.0
2016-Feb-08 11:27N 48°31' W 122°36'0 0.0
2016-Feb-08 10:33N 48°31' W 122°36'0 0.0
2016-Feb-08 09:24N 48°31' W 122°36'0 0.0
2016-Feb-08 08:24N 48°31' W 122°36'0 0.0
2016-Feb-08 07:30N 48°31' W 122°36'0 0.0
2016-Feb-08 06:33N 48°31' W 122°36'0 0.0
2016-Feb-08 05:30N 48°31' W 122°36'0 0.0
2016-Feb-08 04:33N 48°31' W 122°36'0 0.0
2016-Feb-08 03:33N 48°31' W 122°36'0 0.0
2016-Feb-08 02:33N 48°31' W 122°36'0 0.0
2016-Feb-08 01:33N 48°31' W 122°36'0 0.0
2016-Feb-08 00:30N 48°31' W 122°36'0 0.0
2016-Feb-07 23:30N 48°31' W 122°36'0 0.0
2016-Feb-07 22:30N 48°31' W 122°36'0 0.0
2016-Feb-07 21:33N 48°31' W 122°36'0 0.0
2016-Feb-07 20:30N 48°31' W 122°36'0 0.0
2016-Feb-07 19:30N 48°31' W 122°36'0 0.0
2016-Feb-07 18:33N 48°31' W 122°36'0 0.0
2016-Feb-07 17:30N 48°31' W 122°36'0 0.0
2016-Feb-07 16:33N 48°31' W 122°36'0 0.0
2016-Feb-07 15:27N 48°31' W 122°36'0 0.0
2016-Feb-07 13:33N 48°31' W 122°36'0 0.0
2016-Feb-07 12:33N 48°31' W 122°36'0 0.0
2016-Feb-07 11:33N 48°31' W 122°36'0 0.0
2016-Feb-07 10:33N 48°31' W 122°36'0 0.0
2016-Feb-07 09:33N 48°31' W 122°36'0 0.0
2016-Feb-07 08:33N 48°31' W 122°36'0 0.0
2016-Feb-07 07:24N 48°31' W 122°36'0 0.0
2016-Feb-07 06:30N 48°31' W 122°36'0 0.0
2016-Feb-07 05:30N 48°31' W 122°36'0 0.0
2016-Feb-07 04:30N 48°31' W 122°36'0 0.0
2016-Feb-07 03:30N 48°31' W 122°36'0 0.0
2016-Feb-07 02:18N 48°31' W 122°36'0 0.0
2016-Feb-07 01:30N 48°31' W 122°36'0 0.0
2016-Feb-07 00:24N 48°31' W 122°36'0 0.0
2016-Feb-06 23:33N 48°31' W 122°36'0 0.0
2016-Feb-06 22:33N 48°31' W 122°36'8 8.3
2016-Feb-06 21:33N 48°32' W 122°49'7 7.3
2016-Feb-06 20:34N 48°32' W 122°60'0 0.0
2016-Feb-06 19:33N 48°32' W 123°00'5 4.6
2016-Feb-06 18:33N 48°34' W 122°54'8 8.0
2016-Feb-06 17:33N 48°32' W 122°42'4 4.0
2016-Feb-06 16:33N 48°31' W 122°36'0 0.0
2016-Feb-06 15:33N 48°31' W 122°36'0 0.0
2016-Feb-06 14:33N 48°31' W 122°36'0 0.0
2016-Feb-06 13:33N 48°31' W 122°36'0 0.0
2016-Feb-06 12:33N 48°31' W 122°36'0 0.0
2016-Feb-06 11:33N 48°31' W 122°36'0 0.0
2016-Feb-06 10:33N 48°31' W 122°36'0 0.0
2016-Feb-06 09:33N 48°31' W 122°36'0 0.0
2016-Feb-06 08:34N 48°31' W 122°36'0 0.0
2016-Feb-06 07:33N 48°31' W 122°36'0 0.0
2016-Feb-06 06:33N 48°31' W 122°36'0 0.0
2016-Feb-06 05:34N 48°31' W 122°36'0 0.0
2016-Feb-06 04:33N 48°31' W 122°36'0 0.0
2016-Feb-06 03:33N 48°31' W 122°36'0 0.0
2016-Feb-06 02:33N 48°31' W 122°36'0 0.0
2016-Feb-06 01:33N 48°31' W 122°36'0 0.0
2016-Feb-06 00:34N 48°31' W 122°36'0 0.0
2016-Feb-05 23:34N 48°31' W 122°36'0 0.0
2016-Feb-05 22:33N 48°31' W 122°36'0 0.0
2016-Feb-05 21:34N 48°31' W 122°36'0 0.0
2016-Feb-05 20:33N 48°31' W 122°36'0 0.0
2016-Feb-05 19:34N 48°31' W 122°36'0 0.0
2016-Feb-05 18:33N 48°31' W 122°36'0 0.0
2016-Feb-05 17:33N 48°31' W 122°36'0 0.0
2016-Feb-05 16:33N 48°31' W 122°36'0 0.0
2016-Feb-05 15:34N 48°31' W 122°36'0 0.0
2016-Feb-05 14:33N 48°31' W 122°36'0 0.0
2016-Feb-05 13:33N 48°31' W 122°36'0 0.0
2016-Feb-05 12:33N 48°31' W 122°36'0 0.0
2016-Feb-05 11:34N 48°31' W 122°36'0 0.0
2016-Feb-05 10:33N 48°31' W 122°36'0 0.0
2016-Feb-05 09:33N 48°31' W 122°36'0 0.0
2016-Feb-05 08:33N 48°31' W 122°36'0 0.0
2016-Feb-05 07:33N 48°31' W 122°36'0 0.0
2016-Feb-05 06:34N 48°31' W 122°36'0 0.0
2016-Feb-05 05:34N 48°31' W 122°36'0 0.0
2016-Feb-05 04:33N 48°31' W 122°36'0 0.0
2016-Feb-05 03:33N 48°31' W 122°36'0 0.0
2016-Feb-05 02:33N 48°31' W 122°36'0 0.0
2016-Feb-05 01:34N 48°31' W 122°36'0 0.0
2016-Feb-05 00:33N 48°31' W 122°36'0 0.0
2016-Feb-04 23:34N 48°31' W 122°36'0 0.0
2016-Feb-04 22:33N 48°31' W 122°36'1 1.2
2016-Feb-04 21:33N 48°31' W 122°38'9 8.7
2016-Feb-04 20:33N 48°33' W 122°51'2 1.8
2016-Feb-04 19:33N 48°33' W 122°53'1 0.9
2016-Feb-04 18:33N 48°34' W 122°53'9 8.7
2016-Feb-04 17:34N 48°31' W 122°40'3 2.6
2016-Feb-04 16:33N 48°31' W 122°36'1 0.6
2016-Feb-04 15:33N 48°31' W 122°36'0 0.0
2016-Feb-04 14:33N 48°31' W 122°36'0 0.0
2016-Feb-04 13:30N 48°31' W 122°36'0 0.0
2016-Feb-04 12:30N 48°31' W 122°36'0 0.0
2016-Feb-04 11:30N 48°31' W 122°36'0 0.0
2016-Feb-04 10:33N 48°31' W 122°36'0 0.0
2016-Feb-04 09:33N 48°31' W 122°36'0 0.0
2016-Feb-04 08:30N 48°31' W 122°36'0 0.0
2016-Feb-04 07:33N 48°31' W 122°36'0 0.0
2016-Feb-04 06:33N 48°31' W 122°36'0 0.0
2016-Feb-04 05:33N 48°31' W 122°36'0 0.0
2016-Feb-04 04:33N 48°31' W 122°36'0 0.0
2016-Feb-04 03:33N 48°31' W 122°36'0 0.0
2016-Feb-04 02:33N 48°31' W 122°36'5 5.4
2016-Feb-04 01:33N 48°36' W 122°41'5 5.1
2016-Feb-04 00:33N 48°35' W 122°49'1 0.8
2016-Feb-03 23:33N 48°36' W 122°49'0 0.5
2016-Feb-03 22:33N 48°36' W 122°49'1 0.6
2016-Feb-03 21:33N 48°36' W 122°49'1 0.6
2016-Feb-03 20:33N 48°36' W 122°49'1 1.1
2016-Feb-03 19:33N 48°35' W 122°49'1 1.1
2016-Feb-03 18:33N 48°36' W 122°49'1 1.2
2016-Feb-03 17:33N 48°35' W 122°49'1 1.0
2016-Feb-03 16:33N 48°36' W 122°48'9 9.3
2016-Feb-03 15:33N 48°31' W 122°36'0 0.0
2016-Feb-03 14:29N 48°31' W 122°36'0 0.0
2016-Feb-03 13:29N 48°31' W 122°36'0 0.0
2016-Feb-03 12:26N 48°31' W 122°36'0 0.0
2016-Feb-03 11:29N 48°31' W 122°36'0 0.0
2016-Feb-03 10:29N 48°31' W 122°36'0 0.0
2016-Feb-03 09:29N 48°31' W 122°36'0 0.0
2016-Feb-03 08:29N 48°31' W 122°36'0 0.0
2016-Feb-03 07:23N 48°31' W 122°36'0 0.0
2016-Feb-03 06:32N 48°31' W 122°36'0 0.0
2016-Feb-03 05:29N 48°31' W 122°36'0 0.0
2016-Feb-03 04:29N 48°31' W 122°36'0 0.0
2016-Feb-03 03:29N 48°31' W 122°36'0 0.0
2016-Feb-03 02:29N 48°31' W 122°36'0 0.0
2016-Feb-03 01:23N 48°31' W 122°36'0 0.0
2016-Feb-03 00:29N 48°31' W 122°36'0 0.0
2016-Feb-02 23:29N 48°31' W 122°36'0 0.0
2016-Feb-02 22:29N 48°31' W 122°36'0 0.0
2016-Feb-02 21:29N 48°31' W 122°36'0 0.0
2016-Feb-02 20:29N 48°31' W 122°36'0 0.0
2016-Feb-02 19:29N 48°31' W 122°36'0 0.0
2016-Feb-02 18:29N 48°31' W 122°36'0 0.0
2016-Feb-02 17:29N 48°31' W 122°36'0 0.0
2016-Feb-02 16:29N 48°31' W 122°36'0 0.0
2016-Feb-02 15:29N 48°31' W 122°36'0 0.0
2016-Feb-02 14:26N 48°31' W 122°36'0 0.0
2016-Feb-02 12:23N 48°31' W 122°36'0 0.0
2016-Feb-02 11:29N 48°31' W 122°36'0 0.0
2016-Feb-02 10:29N 48°31' W 122°36'0 0.0
2016-Feb-02 09:29N 48°31' W 122°36'0 0.0
2016-Feb-02 08:23N 48°31' W 122°36'0 0.0
2016-Feb-02 07:32N 48°31' W 122°36'0 0.0
2016-Feb-02 06:29N 48°31' W 122°36'0 0.0
2016-Feb-02 05:29N 48°31' W 122°36'0 0.0
2016-Feb-02 04:29N 48°31' W 122°36'0 0.0
2016-Feb-02 03:17N 48°31' W 122°36'0 0.0
2016-Feb-02 02:23N 48°31' W 122°36'0 0.0
2016-Feb-02 01:29N 48°31' W 122°36'0 0.0
2016-Feb-02 00:33N 48°31' W 122°36'3 2.6
2016-Feb-01 23:33N 48°31' W 122°40'7 6.6
2016-Feb-01 22:33N 48°25' W 122°36'2 1.2
2016-Feb-01 20:29N 48°24' W 122°39'6 6.8
2016-Feb-01 19:33N 48°31' W 122°40'2 2.2
2016-Feb-01 18:33N 48°31' W 122°37'  

Dump ship's entire track history